Time;durP1;ratioP1;P1;durP2;ratioP2;P2;SDS_P1;SDS_P2;PMS_P1;PMS_P2;Temp;Humidity;BMP_temperature;BMP_pressure;BME280_temperature;BME280_humidity;BME280_pressure;Samples;Min_cycle;Max_cycle;Signal;HPM_P1;HPM_P2
2021/06/01 00:02:06;;;;;;;10.17;8.00;;;15.10;99.90;;;;;;5061608;28;20239;-85
2021/06/01 00:04:35;;;;;;;8.90;8.10;;;15.00;99.90;;;;;;5051468;28;20764;-85
2021/06/01 00:07:04;;;;;;;8.47;7.67;;;15.00;99.90;;;;;;5060713;28;20657;-86
2021/06/01 00:09:34;;;;;;;8.47;7.60;;;14.80;99.90;;;;;;5050054;28;20259;-84
2021/06/01 00:12:05;;;;;;;8.03;7.27;;;14.90;99.90;;;;;;5049668;28;20691;-85
2021/06/01 00:14:34;;;;;;;8.83;8.00;;;14.90;99.90;;;;;;5049946;28;20691;-84
2021/06/01 00:17:05;;;;;;;7.97;7.20;;;14.80;99.90;;;;;;5052656;28;20238;-85
2021/06/01 00:19:35;;;;;;;7.03;6.33;;;14.60;99.90;;;;;;5065175;28;20239;-85
2021/06/01 00:22:04;;;;;;;5.47;4.97;;;14.50;99.90;;;;;;5061365;28;20255;-86
2021/06/01 00:24:36;;;;;;;5.27;4.87;;;14.50;99.90;;;;;;5070261;28;20778;-85
2021/06/01 00:27:06;;;;;;;4.93;4.40;;;14.50;99.90;;;;;;5050852;28;20235;-84
2021/06/01 00:29:34;;;;;;;4.83;4.30;;;14.50;99.90;;;;;;5050078;28;20711;-85
2021/06/01 00:32:02;;;;;;;4.80;4.10;;;14.60;99.90;;;;;;5054901;28;20701;-85
2021/06/01 00:34:30;;;;;;;4.87;4.47;;;14.60;99.90;;;;;;5057231;28;20228;-85
2021/06/01 00:36:58;;;;;;;5.23;4.77;;;14.60;99.90;;;;;;5049689;28;20297;-85
2021/06/01 00:39:27;;;;;;;5.67;5.17;;;14.50;99.90;;;;;;5036616;28;20305;-85
2021/06/01 00:41:54;;;;;;;6.17;5.57;;;14.40;99.90;;;;;;5052223;28;20286;-85
2021/06/01 00:44:23;;;;;;;6.20;5.50;;;14.30;99.90;;;;;;5049396;28;20236;-85
2021/06/01 00:46:51;;;;;;;5.80;5.30;;;14.20;99.90;;;;;;5051588;28;20274;-85
2021/06/01 00:49:19;;;;;;;9.07;7.33;;;14.30;99.90;;;;;;5048188;28;20293;-85
2021/06/01 00:51:47;;;;;;;9.40;7.73;;;14.30;99.90;;;;;;5048879;28;20238;-85
2021/06/01 00:54:17;;;;;;;8.50;7.70;;;14.30;99.90;;;;;;5064757;28;20232;-85
2021/06/01 00:56:45;;;;;;;8.10;7.30;;;14.30;99.90;;;;;;5058034;28;20270;-84
2021/06/01 00:59:14;;;;;;;8.03;7.33;;;14.20;99.90;;;;;;5085095;28;20280;-84
2021/06/01 01:01:43;;;;;;;8.13;7.37;;;14.20;99.90;;;;;;5062404;28;20700;-86
2021/06/01 01:04:11;;;;;;;7.77;7.07;;;14.30;99.90;;;;;;5049650;28;20223;-85
2021/06/01 01:06:48;;;;;;;6.83;6.13;;;14.10;99.90;;;;;;5049540;28;21005;-86
2021/06/01 01:09:17;;;;;;;6.77;6.10;;;14.10;99.90;;;;;;5049142;28;20236;-85
2021/06/01 01:11:55;;;;;;;6.93;6.23;;;14.20;99.90;;;;;;5051584;28;20232;-86
2021/06/01 01:14:28;;;;;;;5.40;4.90;;;14.10;99.90;;;;;;5049295;28;20236;-86
2021/06/01 01:17:01;;;;;;;5.70;5.10;;;14.00;99.90;;;;;;5059558;28;20576;-86
2021/06/01 01:19:48;;;;;;;5.30;4.77;;;13.90;99.90;;;;;;5069106;28;20871;-86
2021/06/01 01:22:18;;;;;;;5.03;4.33;;;14.00;99.90;;;;;;5055351;28;20762;-86
2021/06/01 01:24:51;;;;;;;5.30;4.80;;;14.00;99.90;;;;;;5041179;28;20242;-86
2021/06/01 01:27:24;;;;;;;4.37;3.97;;;13.80;99.90;;;;;;5055828;28;20243;-86
2021/06/01 01:29:55;;;;;;;4.77;4.37;;;13.80;99.90;;;;;;5049514;28;20565;-86
2021/06/01 01:32:30;;;;;;;4.43;3.90;;;13.70;99.90;;;;;;5051304;28;20282;-85
2021/06/01 01:35:04;;;;;;;4.40;4.00;;;13.70;99.90;;;;;;5049055;28;20243;-85
2021/06/01 01:37:42;;;;;;;4.60;4.20;;;13.80;99.90;;;;;;5048774;28;20244;-86
2021/06/01 01:40:10;;;;;;;4.10;3.80;;;13.80;99.90;;;;;;5049145;28;20275;-84
2021/06/01 01:42:50;;;;;;;4.27;3.97;;;13.80;99.90;;;;;;5051238;28;20662;-86
2021/06/01 01:45:24;;;;;;;4.93;4.53;;;13.90;99.90;;;;;;5047386;28;20301;-85
2021/06/01 01:50:46;;;;;;;5.10;4.70;;;14.00;99.90;;;;;;5048362;28;21550;-84
2021/06/01 01:53:15;;;;;;;5.60;5.10;;;13.80;99.90;;;;;;5049046;28;20247;-85
2021/06/01 01:55:45;;;;;;;6.00;5.50;;;13.70;99.90;;;;;;5048824;28;20252;-84
2021/06/01 01:58:13;;;;;;;5.53;5.00;;;13.60;99.90;;;;;;5065368;28;20289;-85
2021/06/01 02:00:43;;;;;;;5.23;4.77;;;13.60;99.90;;;;;;5047467;28;20240;-85
2021/06/01 02:03:11;;;;;;;5.80;5.30;;;13.70;99.90;;;;;;5030676;28;20326;-85
2021/06/01 02:05:40;;;;;;;5.17;4.77;;;13.50;99.90;;;;;;5048785;28;20834;-85
2021/06/01 02:08:10;;;;;;;5.47;4.97;;;13.50;99.90;;;;;;5047256;28;20706;-85
2021/06/01 02:10:38;;;;;;;5.90;5.40;;;13.40;99.90;;;;;;5064241;28;20706;-84
2021/06/01 02:13:08;;;;;;;5.93;5.43;;;13.60;99.90;;;;;;5051222;28;20310;-85
2021/06/01 02:15:35;;;;;;;5.97;5.47;;;13.50;99.90;;;;;;5052298;28;20235;-85
2021/06/01 02:18:04;;;;;;;6.73;6.00;;;13.60;99.90;;;;;;5071660;28;20564;-85
2021/06/01 02:20:33;;;;;;;8.20;6.40;;;13.50;99.90;;;;;;5052261;28;20651;-85
2021/06/01 02:25:57;;;;;;;7.27;6.57;;;13.30;99.90;;;;;;5074901;28;20246;-84
2021/06/01 02:28:29;;;;;;;6.80;6.13;;;13.40;99.90;;;;;;5047674;28;20599;-84
2021/06/01 02:31:02;;;;;;;6.53;5.97;;;13.40;99.90;;;;;;5044674;28;20254;-85
2021/06/01 02:33:32;;;;;;;7.37;6.70;;;13.40;99.90;;;;;;5052167;28;20250;-85
2021/06/01 02:36:02;;;;;;;7.87;6.77;;;13.40;99.90;;;;;;5054630;28;20688;-84
2021/06/01 02:38:31;;;;;;;7.20;6.50;;;13.30;99.90;;;;;;5071885;28;20594;-85
2021/06/01 02:41:03;;;;;;;9.83;7.53;;;13.30;99.90;;;;;;5071880;28;20266;-85
2021/06/01 02:43:33;;;;;;;8.33;7.43;;;13.20;99.90;;;;;;5059361;28;20776;-85
2021/06/01 02:46:00;;;;;;;8.97;8.07;;;13.30;99.90;;;;;;5054580;28;20773;-85
2021/06/01 02:48:30;;;;;;;7.87;7.07;;;13.20;99.90;;;;;;5059218;28;20231;-84
2021/06/01 02:51:14;;;;;;;7.93;6.87;;;13.10;99.90;;;;;;5067114;28;20718;-86
2021/06/01 02:53:44;;;;;;;6.93;6.33;;;13.20;99.90;;;;;;5031259;28;20240;-84
2021/06/01 02:56:18;;;;;;;7.60;6.90;;;13.20;99.90;;;;;;5038062;28;20317;-84
2021/06/01 02:58:47;;;;;;;7.00;6.30;;;13.20;99.90;;;;;;5051815;28;20239;-85
2021/06/01 03:01:15;;;;;;;7.57;6.87;;;13.20;99.90;;;;;;5051488;28;20237;-85
2021/06/01 03:03:45;;;;;;;7.30;6.60;;;13.40;99.90;;;;;;5051040;28;20250;-84
2021/06/01 03:06:13;;;;;;;7.50;6.73;;;13.60;99.90;;;;;;5054071;28;20243;-85
2021/06/01 03:08:42;;;;;;;7.53;6.80;;;13.70;99.90;;;;;;5052165;28;20239;-84
2021/06/01 03:11:11;;;;;;;7.67;6.77;;;13.60;99.90;;;;;;5054824;28;20709;-84
2021/06/01 03:13:40;;;;;;;9.53;7.80;;;13.50;99.90;;;;;;5051248;28;20296;-84
2021/06/01 03:16:10;;;;;;;8.23;7.33;;;13.40;99.90;;;;;;5053327;28;20310;-83
2021/06/01 03:18:38;;;;;;;8.67;7.73;;;13.40;99.90;;;;;;5071393;28;20632;-84
2021/06/01 03:21:06;;;;;;;8.33;7.27;;;13.40;99.90;;;;;;5053396;28;20321;-84
2021/06/01 03:23:34;;;;;;;9.43;8.50;;;13.40;99.90;;;;;;5049780;28;20235;-85
2021/06/01 03:26:03;;;;;;;8.87;8.03;;;13.10;99.90;;;;;;5053399;28;20292;-85
2021/06/01 03:28:32;;;;;;;8.37;7.57;;;12.90;99.90;;;;;;5047974;28;20295;-85
2021/06/01 03:31:07;;;;;;;7.73;6.97;;;12.80;99.90;;;;;;5047427;28;20571;-84
2021/06/01 03:33:41;;;;;;;7.40;6.70;;;12.70;99.90;;;;;;5048785;28;20234;-85
2021/06/01 03:36:12;;;;;;;7.40;6.70;;;12.70;99.90;;;;;;5045332;28;20242;-85
2021/06/01 03:38:50;;;;;;;8.03;7.23;;;12.60;99.90;;;;;;5046075;28;20776;-85
2021/06/01 03:41:18;;;;;;;8.90;7.43;;;12.60;99.90;;;;;;5053574;28;20238;-85
2021/06/01 03:43:53;;;;;;;8.70;7.83;;;12.60;99.90;;;;;;5067669;28;20598;-85
2021/06/01 03:46:22;;;;;;;9.10;8.13;;;12.70;99.90;;;;;;5047173;28;20695;-85
2021/06/01 03:48:50;;;;;;;8.20;7.40;;;12.70;99.90;;;;;;5063441;28;20230;-84
2021/06/01 03:51:18;;;;;;;11.17;8.40;;;12.70;99.90;;;;;;5047111;28;20231;-85
2021/06/01 03:53:48;;;;;;;9.83;8.80;;;12.70;99.90;;;;;;5059208;28;20624;-84
2021/06/01 03:56:27;;;;;;;9.10;8.20;;;12.70;99.90;;;;;;5067917;28;21062;-84
2021/06/01 03:58:54;;;;;;;9.97;9.07;;;12.70;99.90;;;;;;5049072;28;20230;-86
2021/06/01 04:01:24;;;;;;;9.73;8.73;;;12.70;99.90;;;;;;5052969;28;20783;-85
2021/06/01 04:03:53;;;;;;;9.97;8.97;;;12.70;99.90;;;;;;5050241;28;20250;-85
2021/06/01 04:06:21;;;;;;;9.67;8.70;;;12.80;99.90;;;;;;5052682;28;20242;-85
2021/06/01 04:08:49;;;;;;;9.90;8.90;;;12.90;99.90;;;;;;5050397;28;20564;-85
2021/06/01 04:11:17;;;;;;;10.00;9.00;;;12.90;99.90;;;;;;5054919;28;20238;-84
2021/06/01 04:13:44;;;;;;;9.63;8.67;;;13.00;99.90;;;;;;5069663;28;20242;-85
2021/06/01 04:16:13;;;;;;;10.30;9.17;;;12.90;99.90;;;;;;5066815;28;20628;-85
2021/06/01 04:18:42;;;;;;;11.00;9.40;;;12.90;99.90;;;;;;5057868;28;20262;-84
2021/06/01 04:21:11;;;;;;;10.10;9.10;;;12.90;99.90;;;;;;5057367;28;20234;-84
2021/06/01 04:23:38;;;;;;;9.47;8.57;;;13.00;99.90;;;;;;5049996;28;20235;-85
2021/06/01 04:26:06;;;;;;;9.50;8.60;;;13.00;99.90;;;;;;5053065;28;20701;-84
2021/06/01 04:28:34;;;;;;;9.00;8.10;;;13.00;99.90;;;;;;5059914;28;20228;-84
2021/06/01 04:31:02;;;;;;;10.63;8.40;;;13.00;99.90;;;;;;5055279;28;20248;-85
2021/06/01 04:33:32;;;;;;;9.33;8.13;;;13.20;99.90;;;;;;5050750;28;20241;-84
2021/06/01 04:36:01;;;;;;;10.70;8.30;;;13.40;99.90;;;;;;5045128;28;20301;-84
2021/06/01 04:38:29;;;;;;;9.10;8.17;;;13.40;99.90;;;;;;5044402;28;20259;-84
2021/06/01 04:41:00;;;;;;;11.27;8.80;;;13.60;99.90;;;;;;5051426;28;20765;-85
2021/06/01 04:43:30;;;;;;;10.10;8.97;;;13.80;99.90;;;;;;5043941;28;20324;-86
2021/06/01 04:45:58;;;;;;;10.90;8.77;;;13.80;99.90;;;;;;5051111;28;20322;-85
2021/06/01 04:48:25;;;;;;;10.80;9.07;;;14.00;99.90;;;;;;5066784;28;20263;-86
2021/06/01 04:50:57;;;;;;;10.70;8.93;;;14.10;99.90;;;;;;5048639;28;20958;-86
2021/06/01 04:53:27;;;;;;;9.47;8.37;;;14.20;99.90;;;;;;5047262;28;20702;-86
2021/06/01 04:55:55;;;;;;;9.77;8.50;;;14.30;99.90;;;;;;5050600;28;20326;-86
2021/06/01 04:58:26;;;;;;;10.97;9.07;;;14.30;99.90;;;;;;5066106;28;20662;-86
2021/06/01 05:00:54;;;;;;;10.70;8.97;;;14.00;99.90;;;;;;5047557;28;20248;-85
2021/06/01 05:03:23;;;;;;;9.37;8.37;;;13.90;99.90;;;;;;5068235;28;20296;-87
2021/06/01 05:05:51;;;;;;;10.93;9.73;;;13.70;99.90;;;;;;5058060;28;20255;-86
2021/06/01 05:08:19;;;;;;;10.13;9.03;;;13.60;99.90;;;;;;5068518;28;20750;-87
2021/06/01 05:10:48;;;;;;;9.80;8.80;;;13.50;99.90;;;;;;5060579;28;20242;-87
2021/06/01 05:13:19;;;;;;;9.77;8.90;;;13.50;99.90;;;;;;5053825;28;20318;-86
2021/06/01 05:15:49;;;;;;;9.67;8.77;;;13.50;99.90;;;;;;5066613;28;20243;-90
2021/06/01 05:18:20;;;;;;;10.57;9.27;;;13.60;99.90;;;;;;5058581;28;20289;-86
2021/06/01 05:21:05;;;;;;;9.67;8.77;;;13.50;99.90;;;;;;5049656;28;20231;-86
2021/06/01 05:23:33;;;;;;;10.47;9.07;;;13.50;99.90;;;;;;5062002;28;20238;-86
2021/06/01 05:26:03;;;;;;;9.10;8.30;;;13.50;99.90;;;;;;5050761;28;20240;-86
2021/06/01 05:28:31;;;;;;;9.60;7.80;;;13.40;99.90;;;;;;5055617;28;20278;-86
2021/06/01 05:31:09;;;;;;;8.33;7.20;;;13.50;99.90;;;;;;5052205;28;20292;-85
2021/06/01 05:33:39;;;;;;;7.83;7.03;;;13.60;99.90;;;;;;5044647;28;20239;-85
2021/06/01 05:36:09;;;;;;;7.70;6.93;;;13.80;99.90;;;;;;5046808;28;20981;-85
2021/06/01 05:38:37;;;;;;;7.77;7.07;;;14.00;99.90;;;;;;5045763;28;20284;-85
2021/06/01 05:41:06;;;;;;;7.70;6.90;;;14.10;99.90;;;;;;5045159;28;20314;-86
2021/06/01 05:43:38;;;;;;;9.40;7.17;;;14.20;99.90;;;;;;5046951;28;20691;-86
2021/06/01 05:46:06;;;;;;;8.00;7.20;;;14.30;99.90;;;;;;5039473;28;20942;-87
2021/06/01 05:48:40;;;;;;;8.90;8.00;;;14.50;99.90;;;;;;5065650;28;20246;-85
2021/06/01 05:51:12;;;;;;;9.67;8.67;;;14.80;99.90;;;;;;5055171;28;20324;-84
2021/06/01 05:53:41;;;;;;;10.47;9.33;;;15.00;99.90;;;;;;5051791;28;20238;-84
2021/06/01 05:56:14;;;;;;;10.83;9.73;;;15.30;99.90;;;;;;5054810;28;20235;-87
2021/06/01 05:58:42;;;;;;;9.63;8.63;;;15.70;99.90;;;;;;5067347;28;20231;-84
2021/06/01 06:01:10;;;;;;;8.73;7.93;;;16.00;99.90;;;;;;5050418;28;20319;-84
2021/06/01 06:03:43;;;;;;;8.63;7.83;;;16.60;99.90;;;;;;5051638;28;20244;-83
2021/06/01 06:06:12;;;;;;;9.67;8.40;;;17.30;99.90;;;;;;5054490;28;20612;-84
2021/06/01 06:08:40;;;;;;;9.10;8.30;;;17.90;99.90;;;;;;5051970;28;20715;-85
2021/06/01 06:11:07;;;;;;;8.97;8.17;;;18.50;99.90;;;;;;5070309;28;20629;-86
2021/06/01 06:13:37;;;;;;;9.47;7.87;;;19.20;99.90;;;;;;5050170;28;20248;-86
2021/06/01 06:16:07;;;;;;;9.07;7.60;;;19.50;99.90;;;;;;5049665;28;20246;-86
2021/06/01 06:18:42;;;;;;;8.60;7.70;;;19.70;99.90;;;;;;5051112;28;20233;-84
2021/06/01 06:21:11;;;;;;;8.67;7.87;;;20.00;99.90;;;;;;5051980;28;20245;-85
2021/06/01 06:23:40;;;;;;;8.00;7.30;;;20.10;99.90;;;;;;5050981;28;20240;-85
2021/06/01 06:26:15;;;;;;;9.10;7.50;;;20.10;99.90;;;;;;5053593;28;20241;-85
2021/06/01 06:28:44;;;;;;;8.50;7.73;;;20.20;99.90;;;;;;5051686;28;20276;-85
2021/06/01 06:31:16;;;;;;;9.70;7.63;;;20.10;99.90;;;;;;5054103;28;20233;-85
2021/06/01 06:33:44;;;;;;;8.23;7.43;;;20.00;99.90;;;;;;5050582;28;20272;-84
2021/06/01 06:36:12;;;;;;;8.57;7.67;;;20.00;99.90;;;;;;5054134;28;20264;-85
2021/06/01 06:38:47;;;;;;;9.43;6.83;;;20.10;99.90;;;;;;5049919;28;20242;-86
2021/06/01 06:41:23;;;;;;;8.27;7.13;;;20.40;99.90;;;;;;5053530;28;20278;-86
2021/06/01 06:43:53;;;;;;;7.97;7.17;;;20.80;99.90;;;;;;5066148;28;20256;-86
2021/06/01 06:46:25;;;;;;;8.57;6.50;;;20.80;99.90;;;;;;5050603;28;20313;-85
2021/06/01 06:48:54;;;;;;;6.57;5.97;;;21.00;99.90;;;;;;5051180;28;20242;-85
2021/06/01 06:51:26;;;;;;;7.80;7.00;;;21.20;99.90;;;;;;5065999;28;20330;-86
2021/06/01 06:53:55;;;;;;;7.40;6.53;;;21.00;99.90;;;;;;5065968;28;20624;-85
2021/06/01 06:56:27;;;;;;;6.87;6.13;;;21.00;99.90;;;;;;5055591;28;20249;-85
2021/06/01 06:58:58;;;;;;;8.70;6.83;;;21.00;99.90;;;;;;5051012;28;20304;-86
2021/06/01 07:01:27;;;;;;;8.97;6.93;;;21.10;99.90;;;;;;5054568;28;20756;-86
2021/06/01 07:03:56;;;;;;;7.70;6.90;;;21.20;99.90;;;;;;5050825;28;20235;-85
2021/06/01 07:06:24;;;;;;;6.80;6.20;;;21.20;99.90;;;;;;5052878;28;20239;-86
2021/06/01 07:08:53;;;;;;;9.73;6.73;;;21.40;99.90;;;;;;5056807;28;20242;-85
2021/06/01 07:11:21;;;;;;;8.83;7.40;;;21.60;99.90;;;;;;5053582;28;20238;-84
2021/06/01 07:14:06;;;;;;;8.60;7.27;;;21.70;99.90;;;;;;5049899;28;20232;-84
2021/06/01 07:16:36;;;;;;;9.53;6.97;;;21.80;99.90;;;;;;5050733;28;20240;-86
2021/06/01 07:19:04;;;;;;;7.80;7.00;;;21.80;99.90;;;;;;5050749;28;20266;-86
2021/06/01 07:21:38;;;;;;;8.23;6.20;;;21.90;99.90;;;;;;5049224;28;20236;-86
2021/06/01 07:24:06;;;;;;;11.13;7.17;;;22.00;99.90;;;;;;5050424;28;20328;-86
2021/06/01 07:26:34;;;;;;;7.80;5.90;;;22.10;99.90;;;;;;5050214;28;20240;-86
2021/06/01 07:29:04;;;;;;;9.00;5.50;;;22.30;99.90;;;;;;5050665;28;20232;-85
2021/06/01 07:31:32;;;;;;;9.17;5.90;;;22.50;99.90;;;;;;5067396;28;20340;-85
2021/06/01 07:34:01;;;;;;;6.77;5.40;;;22.40;99.90;;;;;;5049971;28;20305;-88
2021/06/01 07:36:36;;;;;;;6.03;4.97;;;22.30;99.90;;;;;;5049738;28;20224;-86
2021/06/01 07:39:08;;;;;;;6.03;4.83;;;22.10;99.90;;;;;;5050747;28;20246;-86
2021/06/01 07:41:36;;;;;;;7.37;4.97;;;22.10;99.90;;;;;;5057413;28;20731;-87
2021/06/01 07:44:06;;;;;;;7.27;4.93;;;22.40;99.90;;;;;;5073485;28;20243;-87
2021/06/01 07:46:34;;;;;;;6.10;4.70;;;22.90;99.90;;;;;;5056697;28;20239;-87
2021/06/01 07:49:06;;;;;;;6.33;4.47;;;23.70;99.90;;;;;;5051919;28;20240;-88
2021/06/01 07:51:34;;;;;;;5.47;4.37;;;24.20;99.90;;;;;;5050019;28;20235;-88
2021/06/01 07:54:04;;;;;;;5.30;4.30;;;24.70;99.90;;;;;;5050117;28;20736;-87
2021/06/01 07:56:33;;;;;;;5.83;4.30;;;24.80;99.90;;;;;;5050894;28;20224;-86
2021/06/01 07:59:02;;;;;;;6.63;4.20;;;25.20;99.90;;;;;;5050244;28;20240;-87
2021/06/01 08:01:31;;;;;;;5.13;3.80;;;25.00;99.90;;;;;;5049918;28;20232;-88
2021/06/01 08:03:58;;;;;;;7.47;4.10;;;24.90;99.90;;;;;;5049622;28;20237;-87
2021/06/01 08:06:30;;;;;;;6.33;4.33;;;24.80;99.90;;;;;;5049205;28;20228;-87
2021/06/01 08:08:58;;;;;;;6.80;3.60;;;25.00;99.90;;;;;;5049392;28;20245;-87
2021/06/01 08:11:26;;;;;;;4.87;4.40;;;25.40;99.90;;;;;;5034046;28;20760;-85
2021/06/01 08:13:55;;;;;;;4.67;4.00;;;25.40;99.90;;;;;;5048194;28;20326;-87
2021/06/01 08:16:23;;;;;;;4.93;4.27;;;25.50;99.90;;;;;;5048094;28;20583;-87
2021/06/01 08:19:03;;;;;;;5.80;3.90;;;25.70;99.90;;;;;;5048796;28;20786;-87
2021/06/01 08:21:42;;;;;;;4.87;3.67;;;25.80;99.90;;;;;;5050106;28;20230;-86
2021/06/01 08:24:11;;;;;;;6.07;3.93;;;25.70;99.90;;;;;;5048129;28;20237;-86
2021/06/01 08:26:41;;;;;;;5.47;3.63;;;25.40;99.90;;;;;;5048188;28;20331;-86
2021/06/01 08:29:09;;;;;;;4.43;4.00;;;25.50;99.90;;;;;;5047727;28;20714;-86
2021/06/01 08:31:37;;;;;;;4.87;3.60;;;25.70;99.90;;;;;;5057808;28;20363;-86
2021/06/01 08:34:07;;;;;;;4.27;3.47;;;25.60;99.90;;;;;;5065354;28;20241;-87
2021/06/01 08:36:38;;;;;;;5.00;3.77;;;25.40;99.90;;;;;;5054573;28;20245;-88
2021/06/01 08:39:07;;;;;;;4.93;3.97;;;25.60;99.90;;;;;;5073747;28;20671;-86
2021/06/01 08:41:42;;;;;;;7.80;4.30;;;25.60;99.90;;;;;;5049395;28;20246;-84
2021/06/01 08:44:13;;;;;;;6.17;3.87;;;25.60;99.90;;;;;;5047505;28;20237;-84
2021/06/01 08:46:41;;;;;;;5.63;3.90;;;25.50;99.90;;;;;;5049717;28;20241;-84
2021/06/01 08:49:14;;;;;;;4.17;3.73;;;25.50;99.90;;;;;;5048003;28;20691;-84
2021/06/01 08:51:42;;;;;;;5.00;4.07;;;25.60;99.90;;;;;;5050717;28;20250;-83
2021/06/01 08:54:11;;;;;;;5.17;4.17;;;25.50;99.90;;;;;;5047764;28;20668;-84
2021/06/01 08:56:39;;;;;;;5.00;3.90;;;25.40;99.90;;;;;;5047866;28;20246;-84
2021/06/01 08:59:10;;;;;;;4.60;3.80;;;25.50;99.90;;;;;;5046090;28;20325;-83
2021/06/01 09:01:38;;;;;;;5.30;4.27;;;25.60;99.90;;;;;;5068808;28;20612;-83
2021/06/01 09:04:11;;;;;;;6.90;4.40;;;25.40;99.90;;;;;;5051818;28;20245;-83
2021/06/01 09:06:42;;;;;;;6.97;4.37;;;25.20;99.90;;;;;;5052391;28;20244;-83
2021/06/01 09:12:12;;;;;;;5.97;4.20;;;25.00;99.90;;;;;;5012958;28;20248;-83
2021/06/01 09:15:15;;;;;;;4.83;4.20;;;25.10;99.90;;;;;;5046317;28;20242;-83
2021/06/01 09:23:15;;;;;;;6.10;4.10;;;25.00;99.90;;;;;;5029975;28;20251;-83
2021/06/01 09:25:48;;;;;;;5.60;4.03;;;25.20;99.90;;;;;;5031079;28;20713;-82
2021/06/01 09:28:16;;;;;;;4.97;3.93;;;25.40;99.90;;;;;;5049988;28;20245;-82
2021/06/01 09:30:46;;;;;;;6.47;4.17;;;25.80;99.90;;;;;;5054230;28;20246;-82
2021/06/01 09:33:27;;;;;;;7.93;4.60;;;26.10;99.90;;;;;;5049714;28;20249;-80
2021/06/01 09:35:57;;;;;;;4.30;3.90;;;26.50;99.90;;;;;;5050334;28;20250;-80
2021/06/01 09:38:28;;;;;;;5.57;3.80;;;26.50;99.90;;;;;;5050088;28;20246;-80
2021/06/01 09:41:04;;;;;;;4.70;3.90;;;27.20;99.90;;;;;;5049549;28;20247;-80
2021/06/01 09:43:32;;;;;;;7.87;5.17;;;27.70;99.90;;;;;;5042567;28;20258;-81
2021/06/01 09:46:19;;;;;;;6.90;4.23;;;28.00;98.20;;;;;;5066845;28;20247;-81
2021/06/01 09:48:48;;;;;;;4.63;3.83;;;28.40;99.90;;;;;;5049445;28;20243;-81
2021/06/01 09:51:34;;;;;;;4.33;3.90;;;29.10;99.90;;;;;;5051987;28;20972;-81
2021/06/01 09:54:30;;;;;;;7.27;4.20;;;29.70;99.10;;;;;;5049741;28;20248;-81
2021/06/01 09:57:00;;;;;;;7.23;4.73;;;30.00;97.20;;;;;;5051516;28;20246;-81
2021/06/01 09:59:28;;;;;;;7.17;4.73;;;30.00;96.00;;;;;;5041579;28;20315;-82
2021/06/01 10:01:57;;;;;;;5.37;4.10;;;29.90;96.80;;;;;;5054813;28;20235;-81
2021/06/01 10:04:26;;;;;;;6.53;4.40;;;30.00;96.70;;;;;;5072669;28;20236;-81
2021/06/01 10:06:56;;;;;;;8.00;4.47;;;29.80;94.80;;;;;;5055394;28;20232;-82
2021/06/01 10:09:23;;;;;;;7.80;4.20;;;29.90;95.00;;;;;;5064815;28;20236;-82
2021/06/01 10:11:56;;;;;;;6.13;4.30;;;29.50;93.60;;;;;;5049195;28;20664;-81
2021/06/01 10:14:24;;;;;;;6.30;4.23;;;29.30;92.40;;;;;;5064111;28;20243;-81
2021/06/01 10:16:52;;;;;;;6.07;3.70;;;29.60;93.70;;;;;;5058888;28;20237;-81
2021/06/01 10:19:20;;;;;;;7.27;3.90;;;30.00;93.40;;;;;;5050106;28;20254;-81
2021/06/01 10:21:53;;;;;;;5.40;3.70;;;29.80;92.20;;;;;;5063698;28;20336;-81
2021/06/01 10:24:23;;;;;;;4.63;3.47;;;29.40;92.90;;;;;;5049167;28;20239;-82
2021/06/01 10:26:57;;;;;;;4.70;4.10;;;29.30;92.50;;;;;;5050067;28;20699;-82
2021/06/01 10:29:25;;;;;;;4.43;3.77;;;29.50;90.50;;;;;;5049190;28;20247;-81
2021/06/01 10:31:53;;;;;;;5.00;3.70;;;29.60;91.10;;;;;;5054781;28;20322;-81
2021/06/01 10:34:22;;;;;;;4.93;3.30;;;29.60;90.70;;;;;;5059308;28;20361;-81
2021/06/01 10:42:43;;;;;;;6.07;3.97;;;28.90;93.00;;;;;;5044458;28;20231;-81
2021/06/01 10:51:04;;;;;;;7.50;4.20;;;30.20;91.20;;;;;;5036767;28;20244;-81
2021/06/01 10:53:39;;;;;;;4.63;3.50;;;30.50;90.00;;;;;;5048462;28;20775;-81
2021/06/01 10:56:09;;;;;;;5.10;3.63;;;30.80;90.40;;;;;;5050764;28;20265;-81
2021/06/01 10:59:13;;;;;;;5.80;3.70;;;30.60;90.40;;;;;;5060675;28;20584;-81
2021/06/01 11:01:50;;;;;;;5.67;4.17;;;30.50;88.60;;;;;;5051671;28;20297;-81
2021/06/01 11:04:22;;;;;;;6.77;3.57;;;29.80;86.60;;;;;;5053239;28;20321;-81
2021/06/01 11:10:07;;;;;;;6.10;3.87;;;29.60;90.70;;;;;;5060471;28;20236;-82
2021/06/01 11:12:46;;;;;;;7.07;3.47;;;30.00;90.90;;;;;;5047130;28;20247;-82
2021/06/01 11:15:29;;;;;;;5.80;3.40;;;30.30;86.30;;;;;;5046056;28;20227;-81
2021/06/01 11:18:31;;;;;;;3.90;3.40;;;30.00;85.70;;;;;;5048004;28;20244;-82
2021/06/01 11:21:26;;;;;;;4.53;3.40;;;30.40;85.10;;;;;;5038178;28;20271;-82
2021/06/01 11:35:45;;;;;;;5.10;3.20;;;29.40;81.20;;;;;;5027330;28;20240;-82
2021/06/01 11:38:19;;;;;;;6.33;3.30;;;29.10;82.60;;;;;;5046830;28;20266;-81
2021/06/01 11:41:03;;;;;;;4.43;3.80;;;28.80;82.10;;;;;;5051295;28;20301;-81
2021/06/01 11:43:31;;;;;;;4.10;3.40;;;29.00;84.60;;;;;;5065547;28;20620;-82
2021/06/01 11:46:07;;;;;;;3.57;3.27;;;29.00;79.10;;;;;;5066768;28;20287;-82
2021/06/01 11:51:30;;;;;;;4.37;3.37;;;29.00;85.70;;;;;;5047092;28;20232;-81
2021/06/01 11:54:01;;;;;;;4.67;3.50;;;28.60;82.30;;;;;;5046991;28;20243;-81
2021/06/01 11:56:54;;;;;;;4.63;3.23;;;28.90;85.70;;;;;;5047136;28;20233;-81
2021/06/01 12:02:31;;;;;;;4.73;3.47;;;28.60;84.70;;;;;;5051538;28;20285;-80
2021/06/01 12:05:11;;;;;;;4.83;3.13;;;28.20;84.30;;;;;;5049458;28;20251;-80
2021/06/01 12:19:13;;;;;;;6.73;3.47;;;27.30;87.00;;;;;;5035510;28;20234;-81
2021/06/01 12:21:43;;;;;;;4.83;3.63;;;27.10;86.00;;;;;;5072058;28;20287;-81
2021/06/01 12:24:15;;;;;;;4.00;3.60;;;27.20;88.60;;;;;;5050648;28;20265;-81
2021/06/01 12:26:55;;;;;;;5.13;3.30;;;27.40;88.70;;;;;;5048769;28;20295;-81
2021/06/01 12:32:14;;;;;;;5.13;4.07;;;27.50;89.70;;;;;;5050838;28;20285;-80
2021/06/01 12:34:55;;;;;;;5.20;4.10;;;27.20;88.40;;;;;;5048526;28;20298;-81
2021/06/01 12:43:08;;;;;;;9.10;5.87;;;26.50;90.70;;;;;;5047875;28;20297;-80
2021/06/01 12:45:50;;;;;;;6.83;4.50;;;26.10;90.40;;;;;;5043261;28;20248;-80
2021/06/01 13:21:01;;;;;;;6.63;4.90;;;25.60;93.30;;;;;;5046050;28;20247;-82
2021/06/01 13:38:04;;;;;;;7.97;5.00;;;25.30;92.20;;;;;;5048392;28;20649;-82
2021/06/01 13:40:38;;;;;;;4.97;4.23;;;25.30;92.50;;;;;;5047851;28;20644;-82
2021/06/01 13:46:12;;;;;;;5.90;4.10;;;25.40;93.60;;;;;;5029868;28;20237;-82
2021/06/01 13:49:06;;;;;;;5.77;4.30;;;25.60;93.40;;;;;;5041333;28;20245;-82
2021/06/01 13:51:44;;;;;;;6.10;4.57;;;25.60;93.90;;;;;;5039816;28;20242;-83
2021/06/01 13:57:05;;;;;;;7.17;4.23;;;25.30;93.30;;;;;;5045133;28;20308;-82
2021/06/01 14:22:19;;;;;;;6.80;4.13;;;25.60;94.80;;;;;;5050583;28;20234;-84
2021/06/01 14:30:28;;;;;;;4.70;3.97;;;25.40;94.30;;;;;;5038031;28;20262;-82
2021/06/01 14:36:07;;;;;;;4.97;4.20;;;25.40;95.50;;;;;;5008755;28;20250;-82
2021/06/01 15:09:52;;;;;;;5.20;4.70;;;24.80;98.10;;;;;;5040816;28;20237;-81
2021/06/01 15:29:22;;;;;;;4.30;3.90;;;24.60;99.70;;;;;;5050474;28;20232;-80
2021/06/01 15:31:55;;;;;;;5.30;4.10;;;24.70;98.80;;;;;;5040798;28;20311;-81
2021/06/01 15:48:50;;;;;;;4.60;4.17;;;24.60;97.60;;;;;;5053932;28;20260;-80
2021/06/01 15:54:37;;;;;;;4.23;3.83;;;24.60;96.80;;;;;;5049451;28;20233;-81
2021/06/01 16:11:24;;;;;;;11.07;4.07;;;24.40;98.00;;;;;;5032373;28;20245;-81
2021/06/01 16:13:59;;;;;;;5.93;4.07;;;24.40;98.50;;;;;;5049077;28;20614;-81
2021/06/01 16:22:18;;;;;;;7.40;4.17;;;23.70;99.90;;;;;;5045627;28;20326;-81
2021/06/01 16:30:37;;;;;;;5.33;3.90;;;23.60;99.90;;;;;;5048371;28;20591;-80
2021/06/01 16:33:23;;;;;;;5.00;4.10;;;23.50;99.90;;;;;;5048530;28;20240;-81
2021/06/01 17:04:38;;;;;;;5.40;3.90;;;23.40;99.90;;;;;;5048386;28;20242;-80
2021/06/01 17:07:15;;;;;;;4.20;3.77;;;23.40;99.90;;;;;;5048318;28;20293;-79
2021/06/01 17:12:41;;;;;;;6.10;4.13;;;23.30;99.90;;;;;;5048616;28;20581;-79
2021/06/01 17:15:12;;;;;;;4.87;3.87;;;23.30;99.90;;;;;;5047075;28;20231;-79
2021/06/01 17:17:44;;;;;;;5.83;4.63;;;23.20;99.90;;;;;;5050549;28;20244;-79
2021/06/01 17:31:47;;;;;;;8.27;4.50;;;22.70;99.90;;;;;;5047984;28;20754;-80
2021/06/01 17:34:39;;;;;;;8.03;4.33;;;22.60;99.90;;;;;;5047806;28;20306;-80
2021/06/01 17:37:11;;;;;;;5.23;4.70;;;22.60;99.90;;;;;;5049714;28;20232;-82
2021/06/01 17:39:39;;;;;;;5.57;4.03;;;22.40;99.90;;;;;;5047786;28;20243;-81
2021/06/01 17:42:07;;;;;;;5.00;4.50;;;22.30;99.90;;;;;;5054035;28;20241;-80
2021/06/01 17:44:38;;;;;;;4.70;4.20;;;22.20;99.90;;;;;;5050090;28;20242;-82
2021/06/01 17:47:16;;;;;;;4.60;4.07;;;22.20;99.90;;;;;;5052703;28;20304;-81
2021/06/01 17:49:49;;;;;;;7.57;4.30;;;22.30;99.90;;;;;;5067117;28;20250;-82
2021/06/01 17:52:23;;;;;;;6.73;3.83;;;22.20;99.90;;;;;;5053991;28;20707;-81
2021/06/01 17:54:52;;;;;;;3.67;3.17;;;22.10;99.90;;;;;;5051454;28;20247;-82